Time;durP1;ratioP1;P1;durP2;ratioP2;P2;SDS_P1;SDS_P2;PMS_P1;PMS_P2;Temp;Humidity;BMP_temperature;BMP_pressure;BME280_temperature;BME280_humidity;BME280_pressure;Samples;Min_cycle;Max_cycle;Signal;HPM_P1;HPM_P2
2023/08/29 00:00:03;;;;;;;4.10;3.00;;;13.40;99.90;;;;;;5111240;28;20220;-88
2023/08/29 00:02:31;;;;;;;3.20;2.30;;;13.40;99.90;;;;;;5109590;28;20626;-88
2023/08/29 00:04:58;;;;;;;2.83;2.30;;;13.30;99.90;;;;;;5106144;28;20262;-87
2023/08/29 00:07:24;;;;;;;6.67;2.50;;;13.30;99.90;;;;;;5111260;28;20191;-88
2023/08/29 00:09:49;;;;;;;2.40;2.13;;;13.20;99.90;;;;;;5110580;28;20211;-88
2023/08/29 00:12:15;;;;;;;3.10;2.60;;;13.20;99.90;;;;;;5112553;28;20205;-88
2023/08/29 00:14:41;;;;;;;3.97;2.30;;;13.30;99.90;;;;;;5111574;28;20183;-88
2023/08/29 00:17:09;;;;;;;6.53;2.83;;;13.30;99.90;;;;;;5112425;28;20200;-88
2023/08/29 00:19:35;;;;;;;2.77;2.57;;;13.30;99.90;;;;;;5110989;28;20180;-86
2023/08/29 00:22:00;;;;;;;2.50;2.27;;;13.30;99.90;;;;;;5111018;28;20295;-88
2023/08/29 00:24:26;;;;;;;2.80;2.40;;;13.30;99.90;;;;;;5112241;28;20167;-88
2023/08/29 00:26:52;;;;;;;2.70;2.47;;;13.40;99.90;;;;;;5111166;28;20207;-88
2023/08/29 00:29:18;;;;;;;2.60;2.40;;;13.40;99.90;;;;;;5111369;28;20176;-88
2023/08/29 00:31:43;;;;;;;2.90;2.70;;;13.50;99.90;;;;;;5110717;28;20260;-88
2023/08/29 00:34:09;;;;;;;4.87;2.80;;;13.50;99.90;;;;;;5111027;28;20179;-88
2023/08/29 00:36:34;;;;;;;3.13;2.83;;;13.40;99.90;;;;;;5112184;28;20190;-88
2023/08/29 00:39:00;;;;;;;3.77;2.83;;;13.40;99.90;;;;;;5110919;28;20182;-88
2023/08/29 00:41:25;;;;;;;2.70;2.43;;;13.50;99.90;;;;;;5110713;28;20180;-88
2023/08/29 00:43:51;;;;;;;3.00;2.70;;;13.50;99.90;;;;;;5112249;28;20187;-88
2023/08/29 00:46:16;;;;;;;3.13;2.80;;;13.50;99.90;;;;;;5112192;28;20187;-88
2023/08/29 00:48:43;;;;;;;3.30;2.90;;;13.50;99.90;;;;;;5112242;28;20174;-88
2023/08/29 00:51:09;;;;;;;3.37;2.23;;;13.50;99.90;;;;;;5110254;28;20226;-88
2023/08/29 00:53:35;;;;;;;3.10;2.60;;;13.50;99.90;;;;;;5114561;28;20243;-88
2023/08/29 00:56:01;;;;;;;2.80;2.60;;;13.40;99.90;;;;;;5114984;28;20190;-88
2023/08/29 00:58:28;;;;;;;4.33;2.70;;;13.40;99.90;;;;;;5114913;28;20594;-88
2023/08/29 01:00:54;;;;;;;3.40;2.93;;;13.50;99.90;;;;;;5114195;28;20171;-88
2023/08/29 01:03:19;;;;;;;3.27;2.97;;;13.50;99.90;;;;;;5115995;28;20178;-87
2023/08/29 01:05:45;;;;;;;3.40;2.87;;;13.50;99.90;;;;;;5114733;28;20176;-88
2023/08/29 01:08:11;;;;;;;3.60;2.97;;;13.50;99.90;;;;;;5115784;28;20199;-88
2023/08/29 01:10:41;;;;;;;3.07;2.73;;;13.40;99.90;;;;;;5115222;28;20226;-88
2023/08/29 01:13:19;;;;;;;3.00;2.80;;;13.40;99.90;;;;;;5115787;28;20166;-88
2023/08/29 01:15:49;;;;;;;3.70;2.77;;;13.50;99.90;;;;;;5114607;28;20183;-88
2023/08/29 01:18:16;;;;;;;2.90;2.70;;;13.50;99.90;;;;;;5114643;28;20279;-88
2023/08/29 01:20:42;;;;;;;2.97;2.67;;;13.60;99.90;;;;;;5113784;28;20175;-87
2023/08/29 01:23:49;;;;;;;2.87;2.57;;;13.60;99.90;;;;;;5114485;28;20171;-88
2023/08/29 01:26:16;;;;;;;4.27;2.80;;;13.60;99.90;;;;;;5112105;28;20754;-88
2023/08/29 01:28:46;;;;;;;3.40;2.87;;;13.60;99.90;;;;;;5114134;28;20171;-88
2023/08/29 01:31:13;;;;;;;3.53;2.80;;;13.60;99.90;;;;;;5114876;28;20728;-88
2023/08/29 01:33:40;;;;;;;2.90;2.70;;;13.70;99.90;;;;;;5115576;28;20590;-88
2023/08/29 01:36:06;;;;;;;3.00;2.70;;;13.60;99.90;;;;;;5115362;28;20164;-88
2023/08/29 01:38:32;;;;;;;3.20;2.90;;;13.50;99.90;;;;;;5114205;28;20547;-88
2023/08/29 01:43:54;;;;;;;3.23;2.80;;;13.40;99.90;;;;;;5113838;28;20180;-88
2023/08/29 01:46:20;;;;;;;3.10;2.90;;;13.40;99.90;;;;;;5113782;28;20286;-88
2023/08/29 01:48:47;;;;;;;3.27;2.97;;;13.40;99.90;;;;;;5115085;28;20212;-88
2023/08/29 01:51:12;;;;;;;3.30;3.00;;;13.50;99.90;;;;;;5114525;28;20200;-88
2023/08/29 01:53:38;;;;;;;4.10;3.10;;;13.60;99.90;;;;;;5115386;28;20176;-88
2023/08/29 01:56:07;;;;;;;4.43;2.80;;;13.60;99.90;;;;;;5114767;28;20597;-88
2023/08/29 01:58:35;;;;;;;3.27;2.93;;;13.60;99.90;;;;;;5115016;28;20171;-88
2023/08/29 02:01:01;;;;;;;3.53;2.80;;;13.60;99.90;;;;;;5113115;28;20211;-88
2023/08/29 02:03:28;;;;;;;2.83;2.63;;;13.50;99.90;;;;;;5114446;28;20672;-88
2023/08/29 02:05:53;;;;;;;3.40;2.93;;;13.40;99.90;;;;;;5113401;28;20183;-88
2023/08/29 02:08:19;;;;;;;3.70;2.80;;;13.40;99.90;;;;;;5113411;28;20172;-88
2023/08/29 02:10:44;;;;;;;3.00;2.77;;;13.30;99.90;;;;;;5112988;28;20243;-88
2023/08/29 02:13:10;;;;;;;4.83;2.73;;;13.30;99.90;;;;;;5113315;28;20171;-88
2023/08/29 02:15:36;;;;;;;3.77;2.80;;;13.30;99.90;;;;;;5111036;28;20196;-88
2023/08/29 02:18:02;;;;;;;7.50;3.10;;;13.30;99.90;;;;;;5101278;28;20196;-88
2023/08/29 02:20:28;;;;;;;2.90;2.70;;;13.30;99.90;;;;;;5112935;28;20183;-88
2023/08/29 02:22:53;;;;;;;4.87;3.23;;;13.30;99.90;;;;;;5108557;22;20226;-81
2023/08/29 02:25:19;;;;;;;3.17;2.87;;;13.30;99.90;;;;;;5054688;28;20178;-81
2023/08/29 02:27:44;;;;;;;3.27;2.90;;;13.30;99.90;;;;;;5056056;28;20186;-80
2023/08/29 02:30:10;;;;;;;2.93;2.63;;;13.30;99.90;;;;;;5053817;28;20201;-81
2023/08/29 02:32:38;;;;;;;4.17;2.80;;;13.30;99.90;;;;;;5055976;28;20194;-81
2023/08/29 02:35:04;;;;;;;3.00;2.80;;;13.30;99.90;;;;;;5054672;28;20197;-81
2023/08/29 02:37:30;;;;;;;4.80;3.27;;;13.30;99.90;;;;;;5054864;28;20200;-81
2023/08/29 02:39:55;;;;;;;3.63;3.20;;;13.30;99.90;;;;;;5061835;28;20177;-81
2023/08/29 02:42:21;;;;;;;4.50;3.00;;;13.40;99.90;;;;;;5067401;28;20197;-80
2023/08/29 02:44:46;;;;;;;4.07;2.70;;;13.40;99.90;;;;;;5074580;28;20191;-81
2023/08/29 02:47:12;;;;;;;3.40;3.10;;;13.40;99.90;;;;;;5074191;28;20173;-81
2023/08/29 02:49:37;;;;;;;4.90;3.10;;;13.40;99.90;;;;;;5073421;28;20224;-79
2023/08/29 02:52:03;;;;;;;4.77;2.93;;;13.40;99.90;;;;;;5075713;28;20200;-81
2023/08/29 02:54:29;;;;;;;3.37;2.97;;;13.40;99.90;;;;;;5075374;28;20177;-81
2023/08/29 02:56:54;;;;;;;4.33;2.90;;;13.40;99.90;;;;;;5073907;28;20173;-81
2023/08/29 02:59:20;;;;;;;4.00;2.97;;;13.40;99.90;;;;;;5075491;28;20578;-82
2023/08/29 03:01:45;;;;;;;3.53;2.73;;;13.50;99.90;;;;;;5073584;28;20176;-81
2023/08/29 03:04:11;;;;;;;3.13;2.87;;;13.50;99.90;;;;;;5073632;28;20207;-80
2023/08/29 03:06:37;;;;;;;3.30;3.00;;;13.50;99.90;;;;;;5075420;28;20543;-81
2023/08/29 03:09:03;;;;;;;3.23;2.93;;;13.50;99.90;;;;;;5073807;28;20173;-81
2023/08/29 03:11:28;;;;;;;3.20;2.90;;;13.50;99.90;;;;;;5069952;28;20198;-82
2023/08/29 03:13:54;;;;;;;4.50;3.33;;;13.40;99.90;;;;;;5064866;28;20192;-81
2023/08/29 03:16:19;;;;;;;3.77;3.10;;;13.30;99.90;;;;;;5064713;28;20169;-81
2023/08/29 03:18:45;;;;;;;3.47;2.90;;;13.30;99.90;;;;;;5073623;28;20241;-80
2023/08/29 03:21:10;;;;;;;3.53;3.10;;;13.20;99.90;;;;;;5074607;28;20177;-81
2023/08/29 03:23:36;;;;;;;3.43;3.10;;;13.30;99.90;;;;;;5073293;28;20204;-80
2023/08/29 03:26:06;;;;;;;3.73;3.43;;;13.20;99.90;;;;;;5073458;28;20199;-81
2023/08/29 03:28:32;;;;;;;4.27;3.13;;;13.20;99.90;;;;;;5071370;28;20188;-81
2023/08/29 03:31:13;;;;;;;3.30;3.00;;;13.20;99.90;;;;;;5063427;28;20207;-81
2023/08/29 03:33:40;;;;;;;3.50;2.90;;;13.20;99.90;;;;;;5035111;28;20195;-80
2023/08/29 03:36:06;;;;;;;3.20;2.90;;;13.20;99.90;;;;;;5033784;28;20174;-81
2023/08/29 03:38:37;;;;;;;6.87;2.67;;;13.20;99.90;;;;;;5033551;28;20657;-81
2023/08/29 03:41:04;;;;;;;3.20;2.90;;;13.20;99.90;;;;;;5033873;28;20178;-81
2023/08/29 03:43:31;;;;;;;3.40;3.00;;;13.20;99.90;;;;;;5033408;28;20226;-81
2023/08/29 03:46:01;;;;;;;3.30;3.00;;;13.20;99.90;;;;;;5034717;28;20231;-80
2023/08/29 03:48:26;;;;;;;3.23;3.00;;;13.30;99.90;;;;;;5034643;28;20190;-81
2023/08/29 03:50:52;;;;;;;3.60;2.90;;;13.30;99.90;;;;;;5034209;28;20198;-81
2023/08/29 03:53:18;;;;;;;3.00;2.70;;;13.30;99.90;;;;;;5033737;28;20337;-80
2023/08/29 03:55:43;;;;;;;3.00;2.80;;;13.20;99.90;;;;;;5033228;28;20167;-80
2023/08/29 03:58:09;;;;;;;2.90;2.67;;;13.20;99.90;;;;;;5033318;28;20244;-81
2023/08/29 04:00:34;;;;;;;3.10;2.90;;;13.30;99.90;;;;;;5032606;28;20269;-81
2023/08/29 04:03:01;;;;;;;2.83;2.63;;;13.20;99.90;;;;;;5060590;28;20205;-80
2023/08/29 04:05:27;;;;;;;4.20;2.83;;;13.10;99.90;;;;;;5073446;28;20208;-80
2023/08/29 04:07:53;;;;;;;3.33;2.80;;;13.10;99.90;;;;;;5072791;28;20209;-80
2023/08/29 04:10:18;;;;;;;3.97;2.90;;;13.20;99.90;;;;;;5074014;28;20734;-81
2023/08/29 04:12:44;;;;;;;3.70;2.77;;;13.20;99.90;;;;;;5072469;28;20193;-81
2023/08/29 04:15:12;;;;;;;3.93;2.80;;;13.10;99.90;;;;;;5072698;28;20184;-81
2023/08/29 04:17:38;;;;;;;4.07;3.13;;;13.10;99.90;;;;;;5074025;28;20668;-81
2023/08/29 04:20:12;;;;;;;4.43;3.03;;;13.20;99.90;;;;;;5073631;28;20230;-80
2023/08/29 04:22:38;;;;;;;3.50;3.20;;;13.20;99.90;;;;;;5073777;28;20299;-80
2023/08/29 04:25:05;;;;;;;3.77;3.00;;;13.20;99.90;;;;;;5073801;28;20191;-81
2023/08/29 04:27:31;;;;;;;3.67;3.37;;;13.30;99.90;;;;;;5075749;28;20184;-80
2023/08/29 04:29:57;;;;;;;3.03;2.83;;;13.30;99.90;;;;;;5076069;28;20196;-81
2023/08/29 04:32:23;;;;;;;4.30;3.20;;;13.30;99.90;;;;;;5078920;28;20226;-81
2023/08/29 04:34:48;;;;;;;2.90;2.70;;;13.30;99.90;;;;;;5078571;28;20173;-80
2023/08/29 04:37:14;;;;;;;3.60;3.13;;;13.30;99.90;;;;;;5078374;28;20176;-81
2023/08/29 04:39:39;;;;;;;2.83;2.57;;;13.30;99.90;;;;;;5076860;28;20628;-81
2023/08/29 04:42:05;;;;;;;5.20;3.00;;;13.40;99.90;;;;;;5078061;28;20193;-81
2023/08/29 04:44:30;;;;;;;3.00;2.70;;;13.30;99.90;;;;;;5077269;28;20177;-81
2023/08/29 04:46:56;;;;;;;3.13;2.93;;;13.40;99.90;;;;;;5077053;28;20183;-81
2023/08/29 04:49:22;;;;;;;5.03;2.90;;;13.30;99.90;;;;;;5078721;28;20234;-81
2023/08/29 04:51:47;;;;;;;3.40;2.80;;;13.30;99.90;;;;;;5076892;28;20639;-80
2023/08/29 04:54:13;;;;;;;2.70;2.50;;;13.30;99.90;;;;;;5077133;28;20169;-81
2023/08/29 04:56:38;;;;;;;3.40;2.83;;;13.20;99.90;;;;;;5077206;28;20272;-80
2023/08/29 04:59:04;;;;;;;3.23;2.93;;;13.20;99.90;;;;;;5076823;28;20184;-80
2023/08/29 05:01:30;;;;;;;3.20;2.77;;;13.20;99.90;;;;;;5069983;28;20172;-81
2023/08/29 05:03:55;;;;;;;2.80;2.60;;;13.20;99.90;;;;;;5069002;28;20683;-81
2023/08/29 05:06:21;;;;;;;2.90;2.70;;;13.20;99.90;;;;;;5079678;28;20184;-81
2023/08/29 05:08:46;;;;;;;3.30;2.73;;;13.20;99.90;;;;;;5077794;28;20177;-81
2023/08/29 05:11:12;;;;;;;4.23;2.97;;;13.20;99.90;;;;;;5075709;28;20246;-81
2023/08/29 05:13:38;;;;;;;3.33;2.60;;;13.20;99.90;;;;;;5076026;28;20196;-81
2023/08/29 05:16:05;;;;;;;2.90;2.70;;;13.20;99.90;;;;;;5076822;28;20268;-81
2023/08/29 05:18:31;;;;;;;3.30;2.60;;;13.30;99.90;;;;;;5076267;28;20193;-80
2023/08/29 05:20:56;;;;;;;3.53;2.80;;;13.30;99.90;;;;;;5076661;28;20201;-81
2023/08/29 05:23:22;;;;;;;3.10;2.80;;;13.20;99.90;;;;;;5075531;28;20213;-81
2023/08/29 05:25:48;;;;;;;5.20;2.80;;;13.20;99.90;;;;;;5077091;28;20250;-80
2023/08/29 05:28:13;;;;;;;2.93;2.67;;;13.20;99.90;;;;;;5077174;28;20246;-80
2023/08/29 05:30:39;;;;;;;4.33;2.93;;;13.30;99.90;;;;;;5076188;28;20222;-81
2023/08/29 05:33:05;;;;;;;3.97;3.03;;;13.30;99.90;;;;;;5078934;28;20197;-81
2023/08/29 05:35:30;;;;;;;3.10;2.67;;;13.30;99.90;;;;;;5078775;28;20174;-81
2023/08/29 05:37:56;;;;;;;4.30;3.20;;;13.30;99.90;;;;;;5078361;28;20260;-80
2023/08/29 05:40:21;;;;;;;3.37;2.90;;;13.60;99.90;;;;;;5076409;28;20177;-80
2023/08/29 05:42:47;;;;;;;3.30;3.00;;;13.70;99.90;;;;;;5064009;28;20194;-80
2023/08/29 05:45:12;;;;;;;6.70;2.90;;;13.70;99.90;;;;;;5056413;28;20173;-81
2023/08/29 05:47:38;;;;;;;3.03;2.73;;;13.70;99.90;;;;;;5054917;28;20170;-79
2023/08/29 05:50:04;;;;;;;2.83;2.50;;;13.60;99.90;;;;;;5055690;28;20202;-80
2023/08/29 05:52:29;;;;;;;3.03;2.80;;;13.50;99.90;;;;;;5056844;28;20189;-83
2023/08/29 05:54:56;;;;;;;3.00;2.70;;;13.50;99.90;;;;;;5059170;28;20180;-81
2023/08/29 05:57:21;;;;;;;3.03;2.83;;;13.50;99.90;;;;;;5057609;28;20173;-81
2023/08/29 05:59:47;;;;;;;4.67;3.00;;;13.50;99.90;;;;;;5057635;28;20178;-78
2023/08/29 06:02:12;;;;;;;4.73;3.17;;;13.50;99.90;;;;;;5066834;28;20239;-81
2023/08/29 06:04:38;;;;;;;3.10;2.80;;;13.50;99.90;;;;;;5071579;28;20177;-82
2023/08/29 06:07:05;;;;;;;3.73;3.10;;;13.60;99.90;;;;;;5074827;28;20172;-81
2023/08/29 06:09:32;;;;;;;3.77;2.90;;;13.60;99.90;;;;;;5074707;28;20173;-82
2023/08/29 06:11:59;;;;;;;4.10;3.10;;;13.60;99.90;;;;;;5075538;28;20161;-82
2023/08/29 06:14:24;;;;;;;3.30;3.00;;;13.60;99.90;;;;;;5076130;28;20180;-82
2023/08/29 06:16:50;;;;;;;3.50;3.20;;;13.70;99.90;;;;;;5077031;28;20169;-78
2023/08/29 06:19:16;;;;;;;3.63;3.30;;;13.70;99.90;;;;;;5074633;28;20173;-80
2023/08/29 06:21:42;;;;;;;6.77;3.77;;;13.70;99.90;;;;;;5075281;28;20173;-79
2023/08/29 06:24:08;;;;;;;3.80;3.20;;;13.80;99.90;;;;;;5075475;28;20200;-79
2023/08/29 06:26:33;;;;;;;3.40;3.10;;;13.80;99.90;;;;;;5059328;28;20185;-80
2023/08/29 06:28:59;;;;;;;3.40;3.10;;;13.80;99.90;;;;;;5053694;28;20173;-80
2023/08/29 06:31:25;;;;;;;3.97;3.40;;;13.80;99.90;;;;;;5055050;28;20229;-81
2023/08/29 06:33:50;;;;;;;3.40;3.10;;;13.90;99.90;;;;;;5053348;28;20578;-78
2023/08/29 06:36:16;;;;;;;3.60;3.30;;;13.90;99.90;;;;;;5054926;28;20200;-79
2023/08/29 06:38:42;;;;;;;4.47;3.53;;;14.00;99.90;;;;;;5055531;28;20170;-79
2023/08/29 06:41:08;;;;;;;3.37;3.17;;;14.20;99.90;;;;;;5054733;28;20169;-80
2023/08/29 06:43:34;;;;;;;3.73;3.10;;;14.30;99.90;;;;;;5057875;28;20197;-78
2023/08/29 06:46:00;;;;;;;3.47;3.17;;;14.30;99.90;;;;;;5057018;28;20174;-79
2023/08/29 06:48:26;;;;;;;3.87;3.20;;;14.40;99.90;;;;;;5056524;28;20671;-80
2023/08/29 06:50:51;;;;;;;4.57;3.80;;;14.50;99.90;;;;;;5055041;28;20206;-78
2023/08/29 06:53:17;;;;;;;3.40;3.10;;;14.40;99.90;;;;;;5055007;28;20190;-79
2023/08/29 06:55:45;;;;;;;3.27;2.97;;;14.50;99.90;;;;;;5055580;28;20181;-79
2023/08/29 06:58:10;;;;;;;3.27;2.90;;;14.60;99.90;;;;;;5056889;28;20257;-80
2023/08/29 07:00:36;;;;;;;3.30;3.00;;;14.70;99.90;;;;;;5055917;28;20196;-79
2023/08/29 07:03:02;;;;;;;3.27;2.97;;;14.70;99.90;;;;;;5056323;28;20193;-77
2023/08/29 07:05:27;;;;;;;3.37;2.93;;;14.70;99.90;;;;;;5055121;28;20235;-80
2023/08/29 07:07:53;;;;;;;3.50;3.20;;;14.80;99.90;;;;;;5054743;28;20182;-79
2023/08/29 07:10:19;;;;;;;3.50;2.90;;;14.90;99.90;;;;;;5054367;28;20205;-80
2023/08/29 07:12:46;;;;;;;4.43;3.10;;;14.90;99.90;;;;;;5054951;28;20193;-79
2023/08/29 07:15:11;;;;;;;2.97;2.73;;;14.90;99.90;;;;;;5054942;28;20166;-79
2023/08/29 07:17:37;;;;;;;4.93;3.20;;;14.90;99.90;;;;;;5056602;28;20257;-79
2023/08/29 07:20:09;;;;;;;3.23;2.83;;;14.90;99.90;;;;;;5053615;28;20187;-79
2023/08/29 07:22:41;;;;;;;4.97;3.17;;;15.00;99.90;;;;;;5053804;28;20209;-80
2023/08/29 07:25:07;;;;;;;4.00;3.00;;;15.10;99.90;;;;;;5053963;28;20177;-80
2023/08/29 07:27:32;;;;;;;3.20;2.90;;;15.00;99.90;;;;;;5055530;28;20180;-79
2023/08/29 07:29:58;;;;;;;3.37;2.97;;;15.10;99.90;;;;;;5053193;28;20277;-79
2023/08/29 07:32:24;;;;;;;4.30;3.07;;;15.10;99.90;;;;;;5053690;28;20186;-79
2023/08/29 07:34:51;;;;;;;3.30;3.00;;;15.10;99.90;;;;;;5053800;28;20176;-79
2023/08/29 07:37:16;;;;;;;5.20;3.37;;;15.10;99.90;;;;;;5054020;28;20170;-79
2023/08/29 07:39:43;;;;;;;3.27;2.93;;;15.20;99.90;;;;;;5053319;28;20189;-79
2023/08/29 07:42:09;;;;;;;3.57;2.80;;;15.20;99.90;;;;;;5055348;28;20213;-78
2023/08/29 07:44:34;;;;;;;6.50;3.10;;;15.30;99.90;;;;;;5055723;28;20178;-79
2023/08/29 07:47:00;;;;;;;3.87;3.30;;;15.30;99.90;;;;;;5055248;28;20169;-79
2023/08/29 07:49:26;;;;;;;4.10;3.17;;;15.40;99.90;;;;;;5055079;28;20616;-79
2023/08/29 07:51:53;;;;;;;3.20;2.90;;;15.50;99.90;;;;;;5054839;28;20251;-78
2023/08/29 07:54:19;;;;;;;3.93;2.97;;;15.50;99.90;;;;;;5053964;28;20173;-79
2023/08/29 07:56:45;;;;;;;4.57;3.17;;;15.60;99.90;;;;;;5054131;28;20538;-77
2023/08/29 07:59:10;;;;;;;4.27;3.10;;;15.70;99.90;;;;;;5055116;28;20253;-79
2023/08/29 08:01:36;;;;;;;3.73;3.17;;;15.70;99.90;;;;;;5054953;28;20196;-78
2023/08/29 08:04:03;;;;;;;4.00;2.90;;;15.70;99.90;;;;;;5054187;28;20537;-79
2023/08/29 08:06:31;;;;;;;3.10;2.80;;;15.80;99.90;;;;;;5053682;28;20265;-79
2023/08/29 08:08:57;;;;;;;4.17;3.00;;;16.00;99.90;;;;;;5055464;28;20239;-79
2023/08/29 08:11:24;;;;;;;4.20;2.80;;;16.10;99.90;;;;;;5053535;28;20312;-78
2023/08/29 08:13:50;;;;;;;3.23;2.50;;;16.20;99.90;;;;;;5055188;28;20198;-79
2023/08/29 08:16:16;;;;;;;3.47;2.57;;;16.30;99.90;;;;;;5053822;28;20207;-79
2023/08/29 08:18:41;;;;;;;2.90;2.60;;;16.40;99.90;;;;;;5053702;28;20165;-79
2023/08/29 08:21:07;;;;;;;2.67;2.37;;;16.50;99.90;;;;;;5055047;28;20555;-81
2023/08/29 08:23:33;;;;;;;3.57;2.30;;;16.50;99.90;;;;;;5076958;22;20292;-85
2023/08/29 08:25:58;;;;;;;2.57;2.30;;;16.50;99.90;;;;;;5045083;28;20188;-85
2023/08/29 08:28:24;;;;;;;3.27;2.00;;;16.50;99.90;;;;;;5064705;28;20189;-85
2023/08/29 08:30:50;;;;;;;4.47;2.27;;;16.70;96.50;;;;;;5036469;28;20210;-85
2023/08/29 08:33:16;;;;;;;2.63;2.40;;;16.80;20.50;;;;;;5032189;28;20277;-85
2023/08/29 08:35:42;;;;;;;3.43;1.97;;;16.80;1.00;;;;;;5030901;28;20169;-86
2023/08/29 08:38:08;;;;;;;2.73;2.07;;;17.00;98.00;;;;;;5030878;28;20265;-85
2023/08/29 08:40:36;;;;;;;2.77;2.50;;;17.20;1.00;;;;;;5031670;28;20252;-85
2023/08/29 08:43:04;;;;;;;3.30;1.97;;;17.20;1.00;;;;;;5038939;28;20227;-85
2023/08/29 08:45:30;;;;;;;2.07;1.80;;;17.30;1.00;;;;;;5050599;28;20180;-85
2023/08/29 08:47:58;;;;;;;3.20;2.00;;;17.30;1.00;;;;;;5051991;28;20174;-85
2023/08/29 08:50:27;;;;;;;4.13;1.67;;;17.30;1.00;;;;;;5051414;28;20213;-85
2023/08/29 08:52:55;;;;;;;2.77;1.97;;;17.30;1.00;;;;;;5052081;28;20190;-85
2023/08/29 08:55:21;;;;;;;1.90;1.80;;;17.30;1.00;;;;;;5050703;28;20173;-85
2023/08/29 08:57:47;;;;;;;2.30;2.00;;;17.30;1.00;;;;;;5050625;28;20165;-86
2023/08/29 09:00:14;;;;;;;2.73;1.83;;;17.30;1.00;;;;;;5050684;28;20228;-85
2023/08/29 09:02:42;;;;;;;1.90;1.80;;;17.40;1.00;;;;;;5046739;28;20194;-85
2023/08/29 09:05:08;;;;;;;3.30;2.00;;;17.40;1.00;;;;;;5040116;28;20181;-85
2023/08/29 09:07:40;;;;;;;4.13;2.23;;;17.50;1.00;;;;;;5048507;28;20200;-85
2023/08/29 09:10:12;;;;;;;2.73;1.70;;;17.70;99.90;;;;;;5033974;28;20225;-85
2023/08/29 09:12:47;;;;;;;1.80;1.67;;;17.60;1.00;;;;;;5033981;28;20197;-84
2023/08/29 09:15:16;;;;;;;3.00;1.90;;;17.50;1.00;;;;;;5055796;28;20252;-84
2023/08/29 09:17:49;;;;;;;3.33;1.87;;;17.50;1.00;;;;;;5054588;28;20710;-84
2023/08/29 09:20:16;;;;;;;2.80;1.97;;;17.50;1.00;;;;;;5054092;28;20180;-84
2023/08/29 09:22:43;;;;;;;2.73;1.90;;;17.50;1.00;;;;;;5050554;28;20217;-85
2023/08/29 09:25:09;;;;;;;3.30;1.73;;;17.60;1.00;;;;;;5051855;28;20200;-84
2023/08/29 09:27:44;;;;;;;2.33;1.63;;;17.70;1.00;;;;;;5053987;28;20264;-85
2023/08/29 09:30:12;;;;;;;3.97;2.03;;;18.00;1.00;;;;;;5054695;28;20197;-85
2023/08/29 09:32:51;;;;;;;2.13;1.70;;;18.20;99.90;;;;;;5055416;28;20190;-84
2023/08/29 09:35:24;;;;;;;2.77;1.60;;;18.30;99.90;;;;;;5054516;28;20177;-84
2023/08/29 09:37:54;;;;;;;2.23;1.73;;;18.20;1.00;;;;;;5044005;28;20174;-85
2023/08/29 09:40:21;;;;;;;1.70;1.60;;;18.30;1.00;;;;;;5052548;28;20177;-84
2023/08/29 09:42:54;;;;;;;9.77;3.37;;;18.20;1.00;;;;;;5054387;28;20289;-81
2023/08/29 09:45:20;;;;;;;6.67;3.40;;;18.20;1.00;;;;;;5057621;28;20177;-81
2023/08/29 09:47:45;;;;;;;4.20;3.23;;;18.70;7.50;;;;;;5050881;28;20201;-81
2023/08/29 09:50:11;;;;;;;2.03;1.60;;;18.90;99.90;;;;;;5057944;28;20279;-81
2023/08/29 09:52:37;;;;;;;2.57;1.50;;;18.80;1.00;;;;;;5056966;28;20198;-82
2023/08/29 09:55:06;;;;;;;2.43;1.50;;;19.10;99.90;;;;;;5055512;28;20182;-82
2023/08/29 09:57:35;;;;;;;1.75;1.52;;;19.30;99.90;;;;;;5057929;28;20188;-82
2023/08/29 10:00:02;;;;;;;4.28;2.60;;;19.50;1.00;;;;;;5057463;28;20189;-82
2023/08/29 10:02:30;;;;;;;1.77;1.40;;;19.50;99.90;;;;;;5056507;28;20636;-82
2023/08/29 10:05:03;;;;;;;1.73;1.38;;;19.60;99.90;;;;;;5057433;28;20186;-83
2023/08/29 10:07:51;;;;;;;2.08;1.42;;;19.90;99.90;;;;;;5056213;28;20734;-83
2023/08/29 10:10:18;;;;;;;2.17;1.23;;;19.70;59.40;;;;;;5055797;28;20291;-86
2023/08/29 10:12:46;;;;;;;1.83;1.30;;;19.60;1.00;;;;;;5055591;28;20194;-87
2023/08/29 10:15:12;;;;;;;3.97;2.08;;;19.60;99.90;;;;;;5052842;28;20180;-88
2023/08/29 10:17:39;;;;;;;1.95;1.60;;;19.60;99.90;;;;;;5052870;28;20170;-88
2023/08/29 10:20:10;;;;;;;2.03;1.35;;;19.70;1.00;;;;;;5052135;28;20184;-88
2023/08/29 10:22:38;;;;;;;1.60;1.30;;;19.80;1.00;;;;;;5052685;28;20746;-85
2023/08/29 10:25:04;;;;;;;1.65;1.50;;;19.90;1.00;;;;;;5052488;28;20548;-87
2023/08/29 10:27:34;;;;;;;2.55;1.20;;;20.00;99.90;;;;;;5044431;28;20177;-87
2023/08/29 10:30:05;;;;;;;2.40;1.30;;;20.00;99.90;;;;;;5052015;28;20236;-86
2023/08/29 10:32:32;;;;;;;1.52;1.40;;;20.00;99.90;;;;;;5054869;28;20208;-84
2023/08/29 10:34:58;;;;;;;4.10;1.60;;;19.80;1.00;;;;;;5055268;28;20181;-85
2023/08/29 10:37:27;;;;;;;1.92;1.10;;;20.00;1.00;;;;;;5044624;28;20328;-84
2023/08/29 10:39:53;;;;;;;1.45;1.10;;;19.90;99.90;;;;;;5052049;28;20222;-84
2023/08/29 10:42:18;;;;;;;2.10;1.25;;;20.10;99.90;;;;;;5054203;28;20174;-82
2023/08/29 10:44:46;;;;;;;1.30;1.20;;;20.50;1.00;;;;;;5054230;28;20188;-82
2023/08/29 10:47:31;;;;;;;2.20;1.20;;;20.60;1.00;;;;;;5053827;28;20174;-83
2023/08/29 10:49:57;;;;;;;1.58;1.10;;;20.60;1.00;;;;;;5054841;28;20271;-83
2023/08/29 10:52:23;;;;;;;1.63;1.10;;;20.80;15.50;;;;;;5053824;28;20174;-82
2023/08/29 10:55:02;;;;;;;1.23;1.10;;;21.00;1.00;;;;;;5054532;28;20174;-82
2023/08/29 10:57:29;;;;;;;1.23;1.10;;;21.30;1.00;;;;;;5055499;28;20174;-82
2023/08/29 10:59:56;;;;;;;1.70;1.00;;;21.20;99.90;;;;;;5053510;28;20220;-83
2023/08/29 11:02:29;;;;;;;1.20;1.00;;;21.10;1.00;;;;;;5054938;28;20228;-83
2023/08/29 11:05:04;;;;;;;1.48;1.10;;;20.80;99.90;;;;;;5053246;28;20292;-83
2023/08/29 11:07:31;;;;;;;1.05;1.00;;;21.00;1.00;;;;;;5054819;28;20314;-85
2023/08/29 11:10:20;;;;;;;2.15;1.10;;;20.80;1.00;;;;;;5052815;28;20201;-83
2023/08/29 11:13:21;;;;;;;1.55;1.00;;;20.70;99.90;;;;;;5054335;28;20185;-83
2023/08/29 11:15:52;;;;;;;1.42;1.10;;;20.50;1.00;;;;;;5012187;28;20174;-83
2023/08/29 11:18:24;;;;;;;1.73;1.10;;;20.60;99.90;;;;;;5042991;28;20256;-83
2023/08/29 11:20:51;;;;;;;1.00;1.00;;;20.40;99.90;;;;;;5053517;28;20181;-83
2023/08/29 11:23:19;;;;;;;1.15;1.00;;;20.50;1.00;;;;;;5052470;28;20209;-83
2023/08/29 11:25:49;;;;;;;2.03;1.15;;;20.40;1.00;;;;;;5052763;28;20169;-83
2023/08/29 11:28:16;;;;;;;1.10;1.00;;;20.50;1.00;;;;;;5052984;28;20256;-84
2023/08/29 11:30:45;;;;;;;1.10;1.00;;;20.50;99.90;;;;;;5052235;28;20197;-83
2023/08/29 11:33:14;;;;;;;2.60;1.20;;;20.60;1.00;;;;;;5053990;28;20193;-85
2023/08/29 11:35:40;;;;;;;0.98;0.98;;;20.40;34.80;;;;;;5051515;28;20209;-84
2023/08/29 11:38:06;;;;;;;1.67;1.10;;;20.20;99.90;;;;;;5049733;28;20173;-84
2023/08/29 11:40:32;;;;;;;2.10;1.23;;;20.00;1.00;;;;;;5053110;28;20215;-83
2023/08/29 11:42:58;;;;;;;1.17;1.00;;;20.10;1.00;;;;;;5055422;28;20190;-83
2023/08/29 11:45:26;;;;;;;1.23;1.10;;;20.10;1.00;;;;;;5053673;28;20189;-83
2023/08/29 11:47:51;;;;;;;2.67;1.15;;;20.00;1.00;;;;;;5054637;28;20178;-84
2023/08/29 11:50:17;;;;;;;1.27;1.15;;;20.10;99.90;;;;;;5054355;28;20304;-83
2023/08/29 11:52:43;;;;;;;1.40;1.30;;;19.90;39.60;;;;;;5054711;28;20202;-83
2023/08/29 11:55:10;;;;;;;1.30;1.20;;;20.00;1.00;;;;;;5053611;28;20174;-83
2023/08/29 11:57:37;;;;;;;2.22;1.10;;;19.90;99.90;;;;;;5054785;28;20208;-83
2023/08/29 12:00:04;;;;;;;2.50;1.20;;;19.70;1.00;;;;;;5053896;28;20181;-84
2023/08/29 12:02:30;;;;;;;2.15;1.20;;;19.60;99.60;;;;;;5052639;28;20206;-84
2023/08/29 12:04:57;;;;;;;1.30;1.20;;;19.60;99.90;;;;;;5050581;28;20188;-85
2023/08/29 12:07:23;;;;;;;1.17;1.08;;;19.60;1.00;;;;;;5035194;28;20177;-84
2023/08/29 12:09:52;;;;;;;2.20;1.25;;;19.40;1.00;;;;;;5032464;28;20182;-84
2023/08/29 12:12:34;;;;;;;1.60;1.02;;;19.50;1.00;;;;;;5033155;28;20170;-83
2023/08/29 12:15:00;;;;;;;1.15;1.05;;;19.40;99.90;;;;;;5034375;28;20217;-83
2023/08/29 12:17:33;;;;;;;1.55;1.20;;;19.40;1.00;;;;;;5032735;28;20304;-83
2023/08/29 12:19:59;;;;;;;1.77;0.98;;;19.40;99.90;;;;;;5033939;28;20555;-83
2023/08/29 12:22:31;;;;;;;1.23;1.00;;;19.50;1.00;;;;;;5032976;28;20170;-84
2023/08/29 12:25:00;;;;;;;1.35;1.20;;;19.70;99.90;;;;;;5042594;28;20178;-83
2023/08/29 12:27:26;;;;;;;1.63;1.00;;;19.90;1.00;;;;;;5050657;28;20259;-83
2023/08/29 12:29:51;;;;;;;1.35;1.00;;;20.10;99.90;;;;;;5046713;28;20589;-84
2023/08/29 12:32:17;;;;;;;1.25;1.10;;;20.20;99.90;;;;;;5051835;28;20181;-83
2023/08/29 12:34:46;;;;;;;1.88;1.30;;;20.50;99.90;;;;;;5047721;28;20249;-83
2023/08/29 12:37:11;;;;;;;1.83;1.10;;;20.50;99.90;;;;;;5053956;28;20174;-83
2023/08/29 12:39:37;;;;;;;1.42;1.10;;;20.60;99.90;;;;;;5045573;28;20171;-81
2023/08/29 12:42:04;;;;;;;1.65;1.10;;;20.70;99.90;;;;;;5052895;28;20169;-83
2023/08/29 12:44:29;;;;;;;1.40;1.00;;;20.80;75.40;;;;;;5043478;28;20235;-84
2023/08/29 12:46:55;;;;;;;2.00;1.00;;;20.70;1.00;;;;;;5035451;28;20174;-83
2023/08/29 12:49:20;;;;;;;1.92;1.27;;;20.50;1.00;;;;;;5037002;28;20162;-83